sensor_id;sensor_type;location;lat;lon;timestamp;pressure;altitude;pressure_sealevel;temperature
6454;BMP180;3260;52.438;13.502;2022-10-13T04:02:12;101336.00;;;8.60
6454;BMP180;3260;52.438;13.502;2022-10-13T04:04:41;101339.00;;;8.60
6454;BMP180;3260;52.438;13.502;2022-10-13T04:07:09;101337.00;;;8.80
6454;BMP180;3260;52.438;13.502;2022-10-13T04:09:37;101339.00;;;9.00
6454;BMP180;3260;52.438;13.502;2022-10-13T04:12:06;101355.00;;;9.10
6454;BMP180;3260;52.438;13.502;2022-10-13T04:14:34;101336.00;;;8.70
6454;BMP180;3260;52.438;13.502;2022-10-13T04:17:03;101330.00;;;9.00
6454;BMP180;3260;52.438;13.502;2022-10-13T04:19:32;101331.00;;;9.20
6454;BMP180;3260;52.438;13.502;2022-10-13T04:22:01;101337.00;;;9.10
6454;BMP180;3260;52.438;13.502;2022-10-13T04:24:29;101325.00;;;9.10
6454;BMP180;3260;52.438;13.502;2022-10-13T04:26:57;101331.00;;;9.10
6454;BMP180;3260;52.438;13.502;2022-10-13T04:29:26;101327.00;;;9.20
6454;BMP180;3260;52.438;13.502;2022-10-13T04:31:54;101319.00;;;9.10
6454;BMP180;3260;52.438;13.502;2022-10-13T04:34:22;101324.00;;;9.10
6454;BMP180;3260;52.438;13.502;2022-10-13T04:36:55;101326.00;;;9.20
6454;BMP180;3260;52.438;13.502;2022-10-13T04:39:23;101320.00;;;9.10
6454;BMP180;3260;52.438;13.502;2022-10-13T04:41:51;101323.00;;;8.90
6454;BMP180;3260;52.438;13.502;2022-10-13T04:44:20;101316.00;;;9.10
6454;BMP180;3260;52.438;13.502;2022-10-13T04:46:48;101322.00;;;9.20
6454;BMP180;3260;52.438;13.502;2022-10-13T04:49:17;101324.00;;;9.00
6454;BMP180;3260;52.438;13.502;2022-10-13T04:51:45;101324.00;;;9.20
6454;BMP180;3260;52.438;13.502;2022-10-13T04:54:15;101314.00;;;9.50
6454;BMP180;3260;52.438;13.502;2022-10-13T04:56:44;101317.00;;;9.60
6454;BMP180;3260;52.438;13.502;2022-10-13T04:59:12;101310.00;;;9.80
6454;BMP180;3260;52.438;13.502;2022-10-13T05:01:41;101312.00;;;9.80
6454;BMP180;3260;52.438;13.502;2022-10-13T05:04:09;101308.00;;;9.90
6454;BMP180;3260;52.438;13.502;2022-10-13T05:06:39;101310.00;;;9.80
6454;BMP180;3260;52.438;13.502;2022-10-13T05:09:29;101309.00;;;9.70
6454;BMP180;3260;52.438;13.502;2022-10-13T05:11:58;101306.00;;;9.90
6454;BMP180;3260;52.438;13.502;2022-10-13T05:14:26;101306.00;;;8.70
6454;BMP180;3260;52.438;13.502;2022-10-13T05:16:54;101310.00;;;9.20
6454;BMP180;3260;52.438;13.502;2022-10-13T05:19:23;101303.00;;;9.00
6454;BMP180;3260;52.438;13.502;2022-10-13T05:21:51;101309.00;;;8.80
6454;BMP180;3260;52.438;13.502;2022-10-13T05:24:20;101307.00;;;9.30
6454;BMP180;3260;52.438;13.502;2022-10-13T05:26:58;101303.00;;;9.60
6454;BMP180;3260;52.438;13.502;2022-10-13T05:29:27;101288.00;;;9.70
6454;BMP180;3260;52.438;13.502;2022-10-13T05:31:55;101304.00;;;9.70
6454;BMP180;3260;52.438;13.502;2022-10-13T05:34:23;101295.00;;;9.80
6454;BMP180;3260;52.438;13.502;2022-10-13T05:36:52;101295.00;;;9.40
6454;BMP180;3260;52.438;13.502;2022-10-13T05:39:20;101301.00;;;9.50
6454;BMP180;3260;52.438;13.502;2022-10-13T05:41:48;101296.00;;;8.60
6454;BMP180;3260;52.438;13.502;2022-10-13T05:44:18;101296.00;;;9.20
6454;BMP180;3260;52.438;13.502;2022-10-13T05:46:47;101292.00;;;9.90
6454;BMP180;3260;52.438;13.502;2022-10-13T05:49:16;101294.00;;;10.10
6454;BMP180;3260;52.438;13.502;2022-10-13T05:51:46;101299.00;;;10.10
6454;BMP180;3260;52.438;13.502;2022-10-13T05:54:18;101283.00;;;10.10
6454;BMP180;3260;52.438;13.502;2022-10-13T05:56:52;101283.00;;;10.00
6454;BMP180;3260;52.438;13.502;2022-10-13T05:59:23;101286.00;;;10.10
6454;BMP180;3260;52.438;13.502;2022-10-13T06:01:54;101291.00;;;9.70
6454;BMP180;3260;52.438;13.502;2022-10-13T06:04:25;101289.00;;;9.90
6454;BMP180;3260;52.438;13.502;2022-10-13T06:06:56;101291.00;;;9.30
6454;BMP180;3260;52.438;13.502;2022-10-13T06:09:26;101293.00;;;9.10
6454;BMP180;3260;52.438;13.502;2022-10-13T06:12:00;101290.00;;;9.10
6454;BMP180;3260;52.438;13.502;2022-10-13T06:14:30;101297.00;;;9.20
6454;BMP180;3260;52.438;13.502;2022-10-13T06:16:58;101292.00;;;9.80
6454;BMP180;3260;52.438;13.502;2022-10-13T06:19:27;101288.00;;;9.90
6454;BMP180;3260;52.438;13.502;2022-10-13T06:21:55;101288.00;;;9.60
6454;BMP180;3260;52.438;13.502;2022-10-13T06:24:29;101291.00;;;9.70
6454;BMP180;3260;52.438;13.502;2022-10-13T06:26:57;101287.00;;;9.90
6454;BMP180;3260;52.438;13.502;2022-10-13T06:29:26;101296.00;;;10.00
6454;BMP180;3260;52.438;13.502;2022-10-13T06:31:56;101287.00;;;10.30
6454;BMP180;3260;52.438;13.502;2022-10-13T06:34:24;101288.00;;;10.30
6454;BMP180;3260;52.438;13.502;2022-10-13T06:36:52;101288.00;;;10.60
6454;BMP180;3260;52.438;13.502;2022-10-13T06:39:21;101294.00;;;10.50
6454;BMP180;3260;52.438;13.502;2022-10-13T06:41:50;101298.00;;;10.60
6454;BMP180;3260;52.438;13.502;2022-10-13T06:44:18;101296.00;;;10.20
6454;BMP180;3260;52.438;13.502;2022-10-13T06:46:47;101304.00;;;9.80
6454;BMP180;3260;52.438;13.502;2022-10-13T06:49:16;101291.00;;;10.40
6454;BMP180;3260;52.438;13.502;2022-10-13T06:51:45;101295.00;;;10.40
6454;BMP180;3260;52.438;13.502;2022-10-13T06:54:13;101298.00;;;10.50
6454;BMP180;3260;52.438;13.502;2022-10-13T06:56:42;101299.00;;;11.00
6454;BMP180;3260;52.438;13.502;2022-10-13T06:59:10;101296.00;;;11.40
6454;BMP180;3260;52.438;13.502;2022-10-13T07:01:39;101304.00;;;11.70
6454;BMP180;3260;52.438;13.502;2022-10-13T07:04:08;101299.00;;;10.70
6454;BMP180;3260;52.438;13.502;2022-10-13T07:06:38;101300.00;;;11.00
6454;BMP180;3260;52.438;13.502;2022-10-13T07:09:07;101302.00;;;11.00
6454;BMP180;3260;52.438;13.502;2022-10-13T07:11:35;101285.00;;;11.40
6454;BMP180;3260;52.438;13.502;2022-10-13T07:14:04;101283.00;;;11.70
6454;BMP180;3260;52.438;13.502;2022-10-13T07:16:33;101283.00;;;11.20
6454;BMP180;3260;52.438;13.502;2022-10-13T07:19:02;101281.00;;;11.30
6454;BMP180;3260;52.438;13.502;2022-10-13T07:21:31;101280.00;;;11.30
6454;BMP180;3260;52.438;13.502;2022-10-13T07:24:01;101281.00;;;11.20
6454;BMP180;3260;52.438;13.502;2022-10-13T07:26:30;101276.00;;;11.00
6454;BMP180;3260;52.438;13.502;2022-10-13T07:29:00;101282.00;;;11.20
6454;BMP180;3260;52.438;13.502;2022-10-13T07:31:28;101276.00;;;12.00
6454;BMP180;3260;52.438;13.502;2022-10-13T07:33:59;101285.00;;;11.90
6454;BMP180;3260;52.438;13.502;2022-10-13T07:36:27;101277.00;;;12.40
6454;BMP180;3260;52.438;13.502;2022-10-13T07:38:56;101273.00;;;12.80
6454;BMP180;3260;52.438;13.502;2022-10-13T07:41:25;101276.00;;;12.60
6454;BMP180;3260;52.438;13.502;2022-10-13T07:43:54;101271.00;;;12.50
6454;BMP180;3260;52.438;13.502;2022-10-13T07:46:23;101273.00;;;12.50
6454;BMP180;3260;52.438;13.502;2022-10-13T07:48:52;101271.00;;;12.40
6454;BMP180;3260;52.438;13.502;2022-10-13T07:51:21;101272.00;;;12.70
6454;BMP180;3260;52.438;13.502;2022-10-13T07:53:50;101267.00;;;12.30
6454;BMP180;3260;52.438;13.502;2022-10-13T07:56:18;101267.00;;;12.80
6454;BMP180;3260;52.438;13.502;2022-10-13T07:58:48;101271.00;;;12.80
6454;BMP180;3260;52.438;13.502;2022-10-13T08:01:16;101266.00;;;13.00
6454;BMP180;3260;52.438;13.502;2022-10-13T08:03:45;101269.00;;;13.20
6454;BMP180;3260;52.438;13.502;2022-10-13T08:06:17;101264.00;;;14.00
6454;BMP180;3260;52.438;13.502;2022-10-13T08:08:45;101256.00;;;13.60
6454;BMP180;3260;52.438;13.502;2022-10-13T08:11:15;101250.00;;;13.40
6454;BMP180;3260;52.438;13.502;2022-10-13T08:13:47;101245.00;;;13.00
6454;BMP180;3260;52.438;13.502;2022-10-13T08:16:17;101247.00;;;13.30
6454;BMP180;3260;52.438;13.502;2022-10-13T08:18:46;101251.00;;;13.50
6454;BMP180;3260;52.438;13.502;2022-10-13T08:21:16;101257.00;;;14.00
6454;BMP180;3260;52.438;13.502;2022-10-13T08:24:05;101254.00;;;14.60
6454;BMP180;3260;52.438;13.502;2022-10-13T08:26:34;101254.00;;;14.40
6454;BMP180;3260;52.438;13.502;2022-10-13T08:29:04;101254.00;;;14.60
6454;BMP180;3260;52.438;13.502;2022-10-13T08:31:50;101254.00;;;14.90
6454;BMP180;3260;52.438;13.502;2022-10-13T08:34:20;101251.00;;;14.70
6454;BMP180;3260;52.438;13.502;2022-10-13T08:36:49;101250.00;;;15.00
6454;BMP180;3260;52.438;13.502;2022-10-13T08:39:20;101243.00;;;14.70
6454;BMP180;3260;52.438;13.502;2022-10-13T08:41:49;101241.00;;;14.70
6454;BMP180;3260;52.438;13.502;2022-10-13T08:44:22;101235.00;;;15.40
6454;BMP180;3260;52.438;13.502;2022-10-13T08:47:18;101241.00;;;15.10
6454;BMP180;3260;52.438;13.502;2022-10-13T08:49:48;101243.00;;;15.10
6454;BMP180;3260;52.438;13.502;2022-10-13T08:52:18;101244.00;;;15.70
6454;BMP180;3260;52.438;13.502;2022-10-13T08:54:48;101242.00;;;15.40
6454;BMP180;3260;52.438;13.502;2022-10-13T08:57:17;101242.00;;;15.50
6454;BMP180;3260;52.438;13.502;2022-10-13T08:59:48;101244.00;;;15.70
6454;BMP180;3260;52.438;13.502;2022-10-13T09:02:24;101242.00;;;15.20
6454;BMP180;3260;52.438;13.502;2022-10-13T09:04:57;101242.00;;;15.10
6454;BMP180;3260;52.438;13.502;2022-10-13T09:07:30;101244.00;;;15.80
6454;BMP180;3260;52.438;13.502;2022-10-13T09:09:59;101247.00;;;16.50
6454;BMP180;3260;52.438;13.502;2022-10-13T09:12:28;101246.00;;;16.20
6454;BMP180;3260;52.438;13.502;2022-10-13T09:15:01;101240.00;;;17.40
6454;BMP180;3260;52.438;13.502;2022-10-13T09:17:32;101232.00;;;16.70
6454;BMP180;3260;52.438;13.502;2022-10-13T09:20:05;101234.00;;;16.80
6454;BMP180;3260;52.438;13.502;2022-10-13T09:22:35;101227.00;;;17.10
6454;BMP180;3260;52.438;13.502;2022-10-13T09:25:09;101229.00;;;17.10
6454;BMP180;3260;52.438;13.502;2022-10-13T09:27:45;101225.00;;;17.40
6454;BMP180;3260;52.438;13.502;2022-10-13T09:30:29;101223.00;;;16.70
6454;BMP180;3260;52.438;13.502;2022-10-13T11:08:48;101181.00;;;19.90
6454;BMP180;3260;52.438;13.502;2022-10-13T11:11:37;101174.00;;;19.90
6454;BMP180;3260;52.438;13.502;2022-10-13T11:14:25;101169.00;;;20.20
6454;BMP180;3260;52.438;13.502;2022-10-13T11:17:09;101170.00;;;20.60
6454;BMP180;3260;52.438;13.502;2022-10-13T11:19:42;101173.00;;;21.30
6454;BMP180;3260;52.438;13.502;2022-10-13T11:22:24;101166.00;;;22.30
6454;BMP180;3260;52.438;13.502;2022-10-13T11:25:03;101163.00;;;22.70
6454;BMP180;3260;52.438;13.502;2022-10-13T11:27:42;101165.00;;;22.50
6454;BMP180;3260;52.438;13.502;2022-10-13T11:30:40;101164.00;;;22.20
6454;BMP180;3260;52.438;13.502;2022-10-13T11:33:31;101164.00;;;21.90
6454;BMP180;3260;52.438;13.502;2022-10-13T11:36:27;101158.00;;;23.00
6454;BMP180;3260;52.438;13.502;2022-10-13T11:39:01;101161.00;;;23.60
6454;BMP180;3260;52.438;13.502;2022-10-13T11:41:38;101150.00;;;23.80
6454;BMP180;3260;52.438;13.502;2022-10-13T11:44:15;101145.00;;;22.90
6454;BMP180;3260;52.438;13.502;2022-10-13T11:46:58;101158.00;;;23.90
6454;BMP180;3260;52.438;13.502;2022-10-13T11:49:45;101152.00;;;25.10
6454;BMP180;3260;52.438;13.502;2022-10-13T11:52:34;101162.00;;;25.50
6454;BMP180;3260;52.438;13.502;2022-10-13T11:55:12;101157.00;;;25.70
6454;BMP180;3260;52.438;13.502;2022-10-13T11:57:43;101152.00;;;23.80
6454;BMP180;3260;52.438;13.502;2022-10-13T12:00:14;101138.00;;;23.60
6454;BMP180;3260;52.438;13.502;2022-10-13T12:02:48;101138.00;;;24.80
6454;BMP180;3260;52.438;13.502;2022-10-13T12:05:22;101140.00;;;25.20
6454;BMP180;3260;52.438;13.502;2022-10-13T12:07:52;101126.00;;;24.40
6454;BMP180;3260;52.438;13.502;2022-10-13T12:10:27;101117.00;;;22.90
6454;BMP180;3260;52.438;13.502;2022-10-13T12:12:59;101115.00;;;22.80
6454;BMP180;3260;52.438;13.502;2022-10-13T12:15:31;101115.00;;;23.00
6454;BMP180;3260;52.438;13.502;2022-10-13T12:18:01;101121.00;;;23.20
6454;BMP180;3260;52.438;13.502;2022-10-13T12:20:31;101123.00;;;23.40
6454;BMP180;3260;52.438;13.502;2022-10-13T12:23:00;101122.00;;;22.40
6454;BMP180;3260;52.438;13.502;2022-10-13T12:25:29;101111.00;;;21.80
6454;BMP180;3260;52.438;13.502;2022-10-13T12:28:01;101108.00;;;22.00
6454;BMP180;3260;52.438;13.502;2022-10-13T12:30:31;101105.00;;;22.70
6454;BMP180;3260;52.438;13.502;2022-10-13T12:33:03;101114.00;;;22.00
6454;BMP180;3260;52.438;13.502;2022-10-13T12:35:33;101119.00;;;22.20
6454;BMP180;3260;52.438;13.502;2022-10-13T12:38:04;101118.00;;;23.50
6454;BMP180;3260;52.438;13.502;2022-10-13T12:40:34;101119.00;;;22.80
6454;BMP180;3260;52.438;13.502;2022-10-13T12:43:04;101121.00;;;22.90
6454;BMP180;3260;52.438;13.502;2022-10-13T12:45:34;101122.00;;;21.70
6454;BMP180;3260;52.438;13.502;2022-10-13T12:48:02;101120.00;;;21.10
6454;BMP180;3260;52.438;13.502;2022-10-13T12:50:36;101123.00;;;21.40
6454;BMP180;3260;52.438;13.502;2022-10-13T12:53:14;101118.00;;;20.70
6454;BMP180;3260;52.438;13.502;2022-10-13T12:55:49;101109.00;;;19.90
6454;BMP180;3260;52.438;13.502;2022-10-13T12:58:22;101117.00;;;19.50
6454;BMP180;3260;52.438;13.502;2022-10-13T13:01:08;101101.00;;;19.40
6454;BMP180;3260;52.438;13.502;2022-10-13T13:03:38;101108.00;;;19.40
6454;BMP180;3260;52.438;13.502;2022-10-13T13:06:20;101104.00;;;19.60
6454;BMP180;3260;52.438;13.502;2022-10-13T13:09:07;101105.00;;;19.60
6454;BMP180;3260;52.438;13.502;2022-10-13T13:11:45;101114.00;;;19.70
6454;BMP180;3260;52.438;13.502;2022-10-13T13:14:34;101122.00;;;19.30
6454;BMP180;3260;52.438;13.502;2022-10-13T13:17:09;101106.00;;;20.10
6454;BMP180;3260;52.438;13.502;2022-10-13T13:19:39;101109.00;;;20.10
6454;BMP180;3260;52.438;13.502;2022-10-13T13:22:09;101114.00;;;20.10
6454;BMP180;3260;52.438;13.502;2022-10-13T13:24:37;101112.00;;;19.80
6454;BMP180;3260;52.438;13.502;2022-10-13T13:27:15;101126.00;;;19.40
6454;BMP180;3260;52.438;13.502;2022-10-13T13:29:45;101107.00;;;19.10
6454;BMP180;3260;52.438;13.502;2022-10-13T13:32:15;101104.00;;;19.50
6454;BMP180;3260;52.438;13.502;2022-10-13T13:34:46;101099.00;;;19.70
6454;BMP180;3260;52.438;13.502;2022-10-13T13:37:27;101100.00;;;20.00
6454;BMP180;3260;52.438;13.502;2022-10-13T13:39:57;101105.00;;;20.10
6454;BMP180;3260;52.438;13.502;2022-10-13T13:42:26;101091.00;;;19.70
6454;BMP180;3260;52.438;13.502;2022-10-13T13:44:56;101091.00;;;19.40
6454;BMP180;3260;52.438;13.502;2022-10-13T13:47:26;101093.00;;;19.50
6454;BMP180;3260;52.438;13.502;2022-10-13T13:49:56;101091.00;;;19.40
6454;BMP180;3260;52.438;13.502;2022-10-13T13:52:24;101085.00;;;19.00
6454;BMP180;3260;52.438;13.502;2022-10-13T13:54:53;101089.00;;;19.30
6454;BMP180;3260;52.438;13.502;2022-10-13T13:57:22;101081.00;;;19.70
6454;BMP180;3260;52.438;13.502;2022-10-13T13:59:51;101078.00;;;19.20
6454;BMP180;3260;52.438;13.502;2022-10-13T14:02:21;101078.00;;;19.70
6454;BMP180;3260;52.438;13.502;2022-10-13T14:04:49;101079.00;;;20.30
6454;BMP180;3260;52.438;13.502;2022-10-13T14:07:18;101078.00;;;21.40
6454;BMP180;3260;52.438;13.502;2022-10-13T14:09:47;101084.00;;;22.60
6454;BMP180;3260;52.438;13.502;2022-10-13T14:12:16;101087.00;;;24.30
6454;BMP180;3260;52.438;13.502;2022-10-13T14:14:45;101076.00;;;27.40
6454;BMP180;3260;52.438;13.502;2022-10-13T14:17:13;101079.00;;;28.20
6454;BMP180;3260;52.438;13.502;2022-10-13T14:19:43;101070.00;;;28.90
6454;BMP180;3260;52.438;13.502;2022-10-13T14:22:11;101071.00;;;28.90
6454;BMP180;3260;52.438;13.502;2022-10-13T14:24:40;101073.00;;;29.10
6454;BMP180;3260;52.438;13.502;2022-10-13T14:27:08;101064.00;;;26.30
6454;BMP180;3260;52.438;13.502;2022-10-13T14:29:36;101065.00;;;24.70
6454;BMP180;3260;52.438;13.502;2022-10-13T14:32:05;101069.00;;;25.60
6454;BMP180;3260;52.438;13.502;2022-10-13T14:34:33;101068.00;;;25.70
6454;BMP180;3260;52.438;13.502;2022-10-13T14:37:03;101063.00;;;24.10
6454;BMP180;3260;52.438;13.502;2022-10-13T14:39:31;101064.00;;;24.50
6454;BMP180;3260;52.438;13.502;2022-10-13T14:42:00;101067.00;;;23.70
6454;BMP180;3260;52.438;13.502;2022-10-13T14:44:28;101062.00;;;22.70
6454;BMP180;3260;52.438;13.502;2022-10-13T14:46:56;101067.00;;;21.50
6454;BMP180;3260;52.438;13.502;2022-10-13T14:49:25;101061.00;;;20.50
6454;BMP180;3260;52.438;13.502;2022-10-13T14:51:53;101060.00;;;20.20
6454;BMP180;3260;52.438;13.502;2022-10-13T14:54:23;101060.00;;;20.30
6454;BMP180;3260;52.438;13.502;2022-10-13T14:56:51;101061.00;;;20.10
6454;BMP180;3260;52.438;13.502;2022-10-13T14:59:20;101063.00;;;20.80
6454;BMP180;3260;52.438;13.502;2022-10-13T15:01:49;101055.00;;;21.40
6454;BMP180;3260;52.438;13.502;2022-10-13T15:04:17;101062.00;;;22.20
6454;BMP180;3260;52.438;13.502;2022-10-13T15:06:45;101056.00;;;22.00
6454;BMP180;3260;52.438;13.502;2022-10-13T15:09:13;101056.00;;;21.30
6454;BMP180;3260;52.438;13.502;2022-10-13T15:11:43;101054.00;;;20.90
6454;BMP180;3260;52.438;13.502;2022-10-13T15:14:12;101052.00;;;20.70
6454;BMP180;3260;52.438;13.502;2022-10-13T15:16:41;101053.00;;;19.90
6454;BMP180;3260;52.438;13.502;2022-10-13T15:19:09;101046.00;;;20.50
6454;BMP180;3260;52.438;13.502;2022-10-13T15:21:37;101039.00;;;19.70
6454;BMP180;3260;52.438;13.502;2022-10-13T15:24:06;101039.00;;;19.60
6454;BMP180;3260;52.438;13.502;2022-10-13T15:26:36;101045.00;;;19.40
6454;BMP180;3260;52.438;13.502;2022-10-13T15:29:06;101044.00;;;20.00
6454;BMP180;3260;52.438;13.502;2022-10-13T15:31:35;101044.00;;;19.70
6454;BMP180;3260;52.438;13.502;2022-10-13T15:34:04;101044.00;;;19.40
6454;BMP180;3260;52.438;13.502;2022-10-13T15:36:32;101043.00;;;19.50
6454;BMP180;3260;52.438;13.502;2022-10-13T15:39:01;101048.00;;;18.80
6454;BMP180;3260;52.438;13.502;2022-10-13T15:41:29;101043.00;;;18.90
6454;BMP180;3260;52.438;13.502;2022-10-13T15:43:58;101046.00;;;19.00
6454;BMP180;3260;52.438;13.502;2022-10-13T15:46:27;101037.00;;;18.50
6454;BMP180;3260;52.438;13.502;2022-10-13T15:48:57;101043.00;;;18.60
6454;BMP180;3260;52.438;13.502;2022-10-13T15:51:26;101041.00;;;18.00
6454;BMP180;3260;52.438;13.502;2022-10-13T15:53:54;101030.00;;;17.70
6454;BMP180;3260;52.438;13.502;2022-10-13T15:56:22;101037.00;;;17.80
6454;BMP180;3260;52.438;13.502;2022-10-13T15:58:51;101032.00;;;17.80
6454;BMP180;3260;52.438;13.502;2022-10-13T16:01:19;101037.00;;;17.20
6454;BMP180;3260;52.438;13.502;2022-10-13T16:03:52;101025.00;;;17.40
6454;BMP180;3260;52.438;13.502;2022-10-13T16:06:21;101037.00;;;17.10
6454;BMP180;3260;52.438;13.502;2022-10-13T16:08:51;101027.00;;;16.90
6454;BMP180;3260;52.438;13.502;2022-10-13T16:11:21;101035.00;;;16.80
6454;BMP180;3260;52.438;13.502;2022-10-13T16:13:51;101032.00;;;16.60
6454;BMP180;3260;52.438;13.502;2022-10-13T16:16:20;101038.00;;;16.60
6454;BMP180;3260;52.438;13.502;2022-10-13T16:18:50;101035.00;;;16.30
6454;BMP180;3260;52.438;13.502;2022-10-13T16:21:21;101029.00;;;16.50
6454;BMP180;3260;52.438;13.502;2022-10-13T16:23:50;101027.00;;;16.30
6454;BMP180;3260;52.438;13.502;2022-10-13T16:26:18;101026.00;;;16.40
6454;BMP180;3260;52.438;13.502;2022-10-13T16:28:47;101026.00;;;16.30
6454;BMP180;3260;52.438;13.502;2022-10-13T16:31:16;101033.00;;;16.20
6454;BMP180;3260;52.438;13.502;2022-10-13T16:33:45;101031.00;;;15.80
6454;BMP180;3260;52.438;13.502;2022-10-13T16:36:16;101026.00;;;15.90
6454;BMP180;3260;52.438;13.502;2022-10-13T16:38:46;101031.00;;;15.40
6454;BMP180;3260;52.438;13.502;2022-10-13T16:41:16;101025.00;;;15.50
6454;BMP180;3260;52.438;13.502;2022-10-13T16:43:45;101026.00;;;15.30
6454;BMP180;3260;52.438;13.502;2022-10-13T16:46:16;101027.00;;;15.40
6454;BMP180;3260;52.438;13.502;2022-10-13T16:48:45;101028.00;;;15.40
6454;BMP180;3260;52.438;13.502;2022-10-13T16:51:17;101024.00;;;15.80
6454;BMP180;3260;52.438;13.502;2022-10-13T16:53:49;101020.00;;;16.40
6454;BMP180;3260;52.438;13.502;2022-10-13T16:56:18;101019.00;;;16.30
6454;BMP180;3260;52.438;13.502;2022-10-13T16:58:48;101024.00;;;16.40
6454;BMP180;3260;52.438;13.502;2022-10-13T17:01:17;101020.00;;;16.30
6454;BMP180;3260;52.438;13.502;2022-10-13T17:03:45;101021.00;;;16.50
6454;BMP180;3260;52.438;13.502;2022-10-13T17:06:16;101019.00;;;16.30
6454;BMP180;3260;52.438;13.502;2022-10-13T17:08:45;101021.00;;;16.10
6454;BMP180;3260;52.438;13.502;2022-10-13T17:11:16;101018.00;;;15.90
6454;BMP180;3260;52.438;13.502;2022-10-13T17:13:45;101023.00;;;15.70
6454;BMP180;3260;52.438;13.502;2022-10-13T17:16:14;101026.00;;;15.90
6454;BMP180;3260;52.438;13.502;2022-10-13T17:18:42;101017.00;;;15.80
6454;BMP180;3260;52.438;13.502;2022-10-13T17:21:12;101024.00;;;15.30
6454;BMP180;3260;52.438;13.502;2022-10-13T17:23:42;101022.00;;;15.60
6454;BMP180;3260;52.438;13.502;2022-10-13T17:26:16;101032.00;;;15.80
6454;BMP180;3260;52.438;13.502;2022-10-13T17:28:45;101023.00;;;15.90
6454;BMP180;3260;52.438;13.502;2022-10-13T17:31:15;101026.00;;;15.50
6454;BMP180;3260;52.438;13.502;2022-10-13T17:33:44;101017.00;;;15.90
6454;BMP180;3260;52.438;13.502;2022-10-13T17:36:15;101016.00;;;15.90
6454;BMP180;3260;52.438;13.502;2022-10-13T17:38:45;101011.00;;;15.80
6454;BMP180;3260;52.438;13.502;2022-10-13T17:41:14;101011.00;;;16.00
6454;BMP180;3260;52.438;13.502;2022-10-13T17:43:42;101026.00;;;16.00
6454;BMP180;3260;52.438;13.502;2022-10-13T17:46:13;101015.00;;;15.80
6454;BMP180;3260;52.438;13.502;2022-10-13T17:49:02;101015.00;;;15.00
6454;BMP180;3260;52.438;13.502;2022-10-13T17:51:30;101018.00;;;15.50
6454;BMP180;3260;52.438;13.502;2022-10-13T17:54:00;101020.00;;;15.70
6454;BMP180;3260;52.438;13.502;2022-10-13T17:56:29;101022.00;;;15.70
6454;BMP180;3260;52.438;13.502;2022-10-13T17:58:58;101018.00;;;15.50
6454;BMP180;3260;52.438;13.502;2022-10-13T18:01:29;101009.00;;;15.30
6454;BMP180;3260;52.438;13.502;2022-10-13T18:03:59;101009.00;;;15.30
6454;BMP180;3260;52.438;13.502;2022-10-13T18:06:29;101006.00;;;15.10
6454;BMP180;3260;52.438;13.502;2022-10-13T18:09:08;101008.00;;;15.30
6454;BMP180;3260;52.438;13.502;2022-10-13T18:11:37;101008.00;;;15.20
6454;BMP180;3260;52.438;13.502;2022-10-13T18:14:07;101005.00;;;14.90
6454;BMP180;3260;52.438;13.502;2022-10-13T18:16:35;101006.00;;;15.00
6454;BMP180;3260;52.438;13.502;2022-10-13T18:19:04;101006.00;;;15.10
6454;BMP180;3260;52.438;13.502;2022-10-13T18:21:33;101004.00;;;15.00
6454;BMP180;3260;52.438;13.502;2022-10-13T18:24:02;101008.00;;;14.90
6454;BMP180;3260;52.438;13.502;2022-10-13T18:26:32;101003.00;;;15.00
6454;BMP180;3260;52.438;13.502;2022-10-13T18:29:03;100995.00;;;15.00
6454;BMP180;3260;52.438;13.502;2022-10-13T18:31:33;100998.00;;;14.90
6454;BMP180;3260;52.438;13.502;2022-10-13T18:34:04;100992.00;;;14.90
6454;BMP180;3260;52.438;13.502;2022-10-13T18:36:33;100995.00;;;14.80
6454;BMP180;3260;52.438;13.502;2022-10-13T18:39:05;100998.00;;;14.80
6454;BMP180;3260;52.438;13.502;2022-10-13T18:41:36;100992.00;;;14.80
6454;BMP180;3260;52.438;13.502;2022-10-13T18:44:05;100997.00;;;14.80
6454;BMP180;3260;52.438;13.502;2022-10-13T18:46:34;100992.00;;;14.80
6454;BMP180;3260;52.438;13.502;2022-10-13T18:49:03;100994.00;;;14.70
6454;BMP180;3260;52.438;13.502;2022-10-13T18:51:32;100988.00;;;14.70
6454;BMP180;3260;52.438;13.502;2022-10-13T18:54:03;100987.00;;;14.60
6454;BMP180;3260;52.438;13.502;2022-10-13T18:56:34;100982.00;;;14.60
6454;BMP180;3260;52.438;13.502;2022-10-13T18:59:05;100985.00;;;14.60
6454;BMP180;3260;52.438;13.502;2022-10-13T19:01:35;100985.00;;;14.50
6454;BMP180;3260;52.438;13.502;2022-10-13T19:04:04;100988.00;;;14.20
6454;BMP180;3260;52.438;13.502;2022-10-13T19:06:33;100986.00;;;14.20
6454;BMP180;3260;52.438;13.502;2022-10-13T19:09:04;100985.00;;;13.60
6454;BMP180;3260;52.438;13.502;2022-10-13T19:11:35;100986.00;;;14.00
6454;BMP180;3260;52.438;13.502;2022-10-13T19:14:04;100981.00;;;13.50
6454;BMP180;3260;52.438;13.502;2022-10-13T19:16:36;100982.00;;;13.50
6454;BMP180;3260;52.438;13.502;2022-10-13T19:19:04;100989.00;;;13.70
6454;BMP180;3260;52.438;13.502;2022-10-13T19:21:34;100985.00;;;14.00
6454;BMP180;3260;52.438;13.502;2022-10-13T19:24:03;100985.00;;;13.90
6454;BMP180;3260;52.438;13.502;2022-10-13T19:26:33;100984.00;;;13.80
6454;BMP180;3260;52.438;13.502;2022-10-13T19:29:05;100974.00;;;13.90
6454;BMP180;3260;52.438;13.502;2022-10-13T19:31:35;100982.00;;;13.90
6454;BMP180;3260;52.438;13.502;2022-10-13T19:34:04;100973.00;;;14.00
6454;BMP180;3260;52.438;13.502;2022-10-13T19:36:35;100978.00;;;14.10
6454;BMP180;3260;52.438;13.502;2022-10-13T19:39:07;100976.00;;;14.10
6454;BMP180;3260;52.438;13.502;2022-10-13T19:41:38;100981.00;;;13.70
6454;BMP180;3260;52.438;13.502;2022-10-13T19:44:08;100974.00;;;13.90
6454;BMP180;3260;52.438;13.502;2022-10-13T19:46:36;100967.00;;;14.00
6454;BMP180;3260;52.438;13.502;2022-10-13T19:49:05;100967.00;;;13.60
6454;BMP180;3260;52.438;13.502;2022-10-13T19:51:33;100975.00;;;13.70
6454;BMP180;3260;52.438;13.502;2022-10-13T19:54:02;100963.00;;;13.90
6454;BMP180;3260;52.438;13.502;2022-10-13T19:56:30;100966.00;;;13.70
6454;BMP180;3260;52.438;13.502;2022-10-13T19:59:00;100958.00;;;13.80
6454;BMP180;3260;52.438;13.502;2022-10-13T20:01:32;100963.00;;;13.70
6454;BMP180;3260;52.438;13.502;2022-10-13T20:04:06;100964.00;;;13.60
6454;BMP180;3260;52.438;13.502;2022-10-13T20:06:35;100971.00;;;13.50
6454;BMP180;3260;52.438;13.502;2022-10-13T20:09:04;100983.00;;;13.60